Eau Claire, Wisconsin
Current Conditions -  °F | °C
As of 9:56 AM on Saturday 25 Oct 2014 (Local Time) from KEAU Reporting Station
Clear Clear  
Wind Chill: 54°   Ceiling: Unl
Heat Index: 54°   Visibility: 10mi
Dew Point: 36°   Wind: 15mph
Humidity: 51%   Direction: 300°WNW
Pressure: 29.98"   Gusts: NA
Location:  44.82°N, 91.5°W
Report Text: KEAU 251456Z 30013KT 10SM CLR 12/02 A2998 RMK AO2 SLP153 T01220022 51018
Loading
Personal Weather Stations






























Interactive Weather Map
Tropical Storm Tracking
New forecast layout! Learn more

10-Day Weather Forecast

Advertisements
Track Severe Weather on mobile